Zagreb — 9AA5910 — position and weather

sailwx.info

Track history (hours):
 
Tides and Currents Weather Stations Pressure Air Temp Water Temp Dewpoint Dewpoint Depression Visibility Wind Speed Wind Dir Waves Ship Positions

Zagreb

Last reported at 2017-Jun-23 01:07 UTC. Time now 2017-Jun-24 18:59 UTC.
Position N 42°04' E 011°46'.

Length 229 m; draft 14.3 m.

Type: Cargo ship. MMSI: 238249000.

Date/timePositionNaut miles runAvg speedWind from/ knotsBaromVisibWave heightAir tempDewpointWater temp
2017-Jun-23 01:07N 42°04' E 011°46'  
2017-Jun-17 19:37N 40°10' E 010°27'212.1
2017-Jun-17 19:25N 40°08' E 010°26'6812.4
2017-Jun-17 13:59N 39°07' E 009°47'1412.2
2017-Jun-17 12:50N 38°55' E 009°40'412.1
2017-Jun-17 12:30N 38°51' E 009°37'1012.2
2017-Jun-17 11:42N 38°42' E 009°32'211.9
2017-Jun-17 11:30N 38°40' E 009°31'612.1
2017-Jun-17 10:59N 38°38' E 009°23'3712.4
2017-Jun-17 07:58N 38°30' E 008°36'18112.1
2017-Jun-16 16:59N 37°46' E 004°53'611.8
2017-Jun-16 16:30N 37°45' E 004°47'611.8
2017-Jun-16 16:00N 37°43' E 004°39'611.9
2017-Jun-16 15:30N 37°42' E 004°32'612.0
2017-Jun-16 15:00N 37°40' E 004°25'612.1
2017-Jun-16 14:30N 37°39' E 004°17'1212.1
2017-Jun-16 13:30N 37°36' E 004°02'612.0
2017-Jun-16 13:00N 37°35' E 003°55'611.9
2017-Jun-16 12:31N 37°33' E 003°48'611.8
2017-Jun-16 12:00N 37°32' E 003°40'611.7
2017-Jun-16 11:29N 37°31' E 003°33'8011.7
2017-Jun-16 04:41N 37°11' E 001°56'211.2
2017-Jun-16 04:30N 37°10' E 001°53'3011.6
2017-Jun-16 01:57N 37°04' E 001°17'1511.9
2017-Jun-16 00:43N 37°00' E 000°59'312.2
2017-Jun-16 00:27N 36°59' E 000°55'612.3
2017-Jun-16 00:00N 36°58' E 000°49'612.3
2017-Jun-15 23:30N 36°57' E 000°41'1912.2
2017-Jun-15 21:56N 36°52' E 000°18'712.1
2017-Jun-15 21:24N 36°50' E 000°10'511.9
2017-Jun-15 21:00N 36°49' E 000°04'611.7
2017-Jun-15 20:30N 36°48' W 000°03'611.5
2017-Jun-15 20:00N 36°46' W 000°10'611.6
2017-Jun-15 19:30N 36°45' W 000°17'611.9
2017-Jun-15 19:00N 36°43' W 000°24'611.7
2017-Jun-15 18:30N 36°42' W 000°31'611.8
2017-Jun-15 17:57N 36°40' W 000°39'711.8
2017-Jun-15 17:23N 36°39' W 000°47'21012.4
2017-Jun-15 00:29N 36°01' W 005°03'715.0
2017-Jun-15 00:00N 36°00' W 005°12'815.8
2017-Jun-14 23:30N 35°59' W 005°21'815.7
2017-Jun-14 23:00N 35°57' W 005°30'7512.9
2017-Jun-14 17:13N 36°04' W 007°02'3112.0
2017-Jun-14 14:38N 36°13' W 007°39'310.5
2017-Jun-14 14:22N 36°13' W 007°43'3512.5
2017-Jun-14 11:36N 36°23' W 008°24'312.3
2017-Jun-14 11:24N 36°24' W 008°27'512.1
2017-Jun-14 11:00N 36°25' W 008°32'712.4
2017-Jun-14 10:28N 36°27' W 008°40'712.2
2017-Jun-14 09:55N 36°29' W 008°48'511.9
2017-Jun-14 09:29N 36°30' W 008°55'612.0
2017-Jun-14 09:01N 36°32' W 009°01'912.0
2017-Jun-14 08:16N 36°34' W 009°12'1111.9
2017-Jun-14 07:22N 36°40' W 009°24'512.6
2017-Jun-14 06:56N 36°43' W 009°28'512.3
2017-Jun-14 06:30N 36°47' W 009°33'4512.3
2017-Jun-14 02:52N 37°30' W 009°46'412.2
2017-Jun-14 02:31N 37°35' W 009°47'612.3
2017-Jun-14 01:59N 37°41' W 009°49'612.2
2017-Jun-14 01:30N 37°47' W 009°51'1012.1
2017-Jun-14 00:39N 37°57' W 009°53'212.3
2017-Jun-14 00:30N 37°59' W 009°54'612.4
2017-Jun-14 00:00N 38°05' W 009°56'612.4
2017-Jun-13 23:30N 38°11' W 009°57'612.5
2017-Jun-13 23:01N 38°17' W 009°59'612.5
2017-Jun-13 22:30N 38°23' W 010°01'612.3
2017-Jun-13 22:01N 38°29' W 010°03'611.8
2017-Jun-13 21:30N 38°35' W 010°04'611.7
2017-Jun-13 21:00N 38°40' W 010°06'612.0
2017-Jun-13 20:30N 38°46' W 010°06'612.4
2017-Jun-13 20:01N 38°53' W 010°06'612.8
2017-Jun-13 19:30N 38°59' W 010°06'612.6
2017-Jun-13 19:00N 39°05' W 010°06'612.9
2017-Jun-13 18:30N 39°12' W 010°06'612.5
2017-Jun-13 18:00N 39°18' W 010°06'612.8
2017-Jun-13 17:31N 39°24' W 010°06'612.5
2017-Jun-13 17:00N 39°31' W 010°06'612.4
2017-Jun-13 16:31N 39°37' W 010°06'612.5
2017-Jun-13 16:01N 39°43' W 010°06'612.3
2017-Jun-13 15:30N 39°49' W 010°06'612.2
2017-Jun-13 15:00N 39°55' W 010°06'611.8
2017-Jun-13 14:30N 40°01' W 010°05'4111.7
2017-Jun-13 11:01N 40°42' W 010°06'111.5
2017-Jun-13 10:58N 40°43' W 010°06'511.7
2017-Jun-13 10:30N 40°48' W 010°06'612.2
2017-Jun-13 10:00N 40°54' W 010°06'612.2
2017-Jun-13 09:30N 41°00' W 010°06'611.8
2017-Jun-13 09:00N 41°06' W 010°06'611.8
2017-Jun-13 08:30N 41°12' W 010°06'612.0
2017-Jun-13 08:00N 41°18' W 010°06'611.9
2017-Jun-13 07:30N 41°24' W 010°06'611.8
2017-Jun-13 07:00N 41°30' W 010°06'711.8
2017-Jun-13 06:27N 41°37' W 010°07'2911.9
2017-Jun-13 04:00N 42°06' W 010°06'  
Track history (hours):
 
Tides and Currents Weather Stations Pressure Air Temp Water Temp Dewpoint Dewpoint Depression Visibility Wind Speed Wind Dir Waves Ship Positions

Zagreb

Last reported at 2017-Jun-23 01:07 UTC. Time now 2017-Jun-24 18:59 UTC.
Position N 42°04' E 011°46'.

Length 229 m; draft 14.3 m.

Type: Cargo ship. MMSI: 238249000.

Date/timePositionNaut miles runAvg speedWind from/ knotsBaromVisibWave heightAir tempDewpointWater temp
2017-Jun-23 01:07N 42°04' E 011°46'  
2017-Jun-17 19:37N 40°10' E 010°27'212.1
2017-Jun-17 19:25N 40°08' E 010°26'6812.4
2017-Jun-17 13:59N 39°07' E 009°47'1412.2
2017-Jun-17 12:50N 38°55' E 009°40'412.1
2017-Jun-17 12:30N 38°51' E 009°37'1012.2
2017-Jun-17 11:42N 38°42' E 009°32'211.9
2017-Jun-17 11:30N 38°40' E 009°31'612.1
2017-Jun-17 10:59N 38°38' E 009°23'3712.4
2017-Jun-17 07:58N 38°30' E 008°36'18112.1
2017-Jun-16 16:59N 37°46' E 004°53'611.8
2017-Jun-16 16:30N 37°45' E 004°47'611.8
2017-Jun-16 16:00N 37°43' E 004°39'611.9
2017-Jun-16 15:30N 37°42' E 004°32'612.0
2017-Jun-16 15:00N 37°40' E 004°25'612.1
2017-Jun-16 14:30N 37°39' E 004°17'1212.1
2017-Jun-16 13:30N 37°36' E 004°02'612.0
2017-Jun-16 13:00N 37°35' E 003°55'611.9
2017-Jun-16 12:31N 37°33' E 003°48'611.8
2017-Jun-16 12:00N 37°32' E 003°40'611.7
2017-Jun-16 11:29N 37°31' E 003°33'8011.7
2017-Jun-16 04:41N 37°11' E 001°56'211.2
2017-Jun-16 04:30N 37°10' E 001°53'3011.6
2017-Jun-16 01:57N 37°04' E 001°17'1511.9
2017-Jun-16 00:43N 37°00' E 000°59'312.2
2017-Jun-16 00:27N 36°59' E 000°55'612.3
2017-Jun-16 00:00N 36°58' E 000°49'612.3
2017-Jun-15 23:30N 36°57' E 000°41'1912.2
2017-Jun-15 21:56N 36°52' E 000°18'712.1
2017-Jun-15 21:24N 36°50' E 000°10'511.9
2017-Jun-15 21:00N 36°49' E 000°04'611.7
2017-Jun-15 20:30N 36°48' W 000°03'611.5
2017-Jun-15 20:00N 36°46' W 000°10'611.6
2017-Jun-15 19:30N 36°45' W 000°17'611.9
2017-Jun-15 19:00N 36°43' W 000°24'611.7
2017-Jun-15 18:30N 36°42' W 000°31'611.8
2017-Jun-15 17:57N 36°40' W 000°39'711.8
2017-Jun-15 17:23N 36°39' W 000°47'21012.4
2017-Jun-15 00:29N 36°01' W 005°03'715.0
2017-Jun-15 00:00N 36°00' W 005°12'815.8
2017-Jun-14 23:30N 35°59' W 005°21'815.7
2017-Jun-14 23:00N 35°57' W 005°30'7512.9
2017-Jun-14 17:13N 36°04' W 007°02'3112.0
2017-Jun-14 14:38N 36°13' W 007°39'310.5
2017-Jun-14 14:22N 36°13' W 007°43'3512.5
2017-Jun-14 11:36N 36°23' W 008°24'312.3
2017-Jun-14 11:24N 36°24' W 008°27'512.1
2017-Jun-14 11:00N 36°25' W 008°32'712.4
2017-Jun-14 10:28N 36°27' W 008°40'712.2
2017-Jun-14 09:55N 36°29' W 008°48'511.9
2017-Jun-14 09:29N 36°30' W 008°55'612.0
2017-Jun-14 09:01N 36°32' W 009°01'912.0
2017-Jun-14 08:16N 36°34' W 009°12'1111.9
2017-Jun-14 07:22N 36°40' W 009°24'512.6
2017-Jun-14 06:56N 36°43' W 009°28'512.3
2017-Jun-14 06:30N 36°47' W 009°33'4512.3
2017-Jun-14 02:52N 37°30' W 009°46'412.2
2017-Jun-14 02:31N 37°35' W 009°47'612.3
2017-Jun-14 01:59N 37°41' W 009°49'612.2
2017-Jun-14 01:30N 37°47' W 009°51'1012.1
2017-Jun-14 00:39N 37°57' W 009°53'212.3
2017-Jun-14 00:30N 37°59' W 009°54'612.4
2017-Jun-14 00:00N 38°05' W 009°56'612.4
2017-Jun-13 23:30N 38°11' W 009°57'612.5
2017-Jun-13 23:01N 38°17' W 009°59'612.5
2017-Jun-13 22:30N 38°23' W 010°01'612.3
2017-Jun-13 22:01N 38°29' W 010°03'611.8
2017-Jun-13 21:30N 38°35' W 010°04'611.7
2017-Jun-13 21:00N 38°40' W 010°06'612.0
2017-Jun-13 20:30N 38°46' W 010°06'612.4
2017-Jun-13 20:01N 38°53' W 010°06'612.8
2017-Jun-13 19:30N 38°59' W 010°06'612.6
2017-Jun-13 19:00N 39°05' W 010°06'612.9
2017-Jun-13 18:30N 39°12' W 010°06'612.5
2017-Jun-13 18:00N 39°18' W 010°06'612.8
2017-Jun-13 17:31N 39°24' W 010°06'612.5
2017-Jun-13 17:00N 39°31' W 010°06'612.4
2017-Jun-13 16:31N 39°37' W 010°06'612.5
2017-Jun-13 16:01N 39°43' W 010°06'612.3
2017-Jun-13 15:30N 39°49' W 010°06'612.2
2017-Jun-13 15:00N 39°55' W 010°06'611.8
2017-Jun-13 14:30N 40°01' W 010°05'4111.7
2017-Jun-13 11:01N 40°42' W 010°06'111.5
2017-Jun-13 10:58N 40°43' W 010°06'511.7
2017-Jun-13 10:30N 40°48' W 010°06'612.2
2017-Jun-13 10:00N 40°54' W 010°06'612.2
2017-Jun-13 09:30N 41°00' W 010°06'611.8
2017-Jun-13 09:00N 41°06' W 010°06'611.8
2017-Jun-13 08:30N 41°12' W 010°06'612.0
2017-Jun-13 08:00N 41°18' W 010°06'611.9
2017-Jun-13 07:30N 41°24' W 010°06'611.8
2017-Jun-13 07:00N 41°30' W 010°06'711.8
2017-Jun-13 06:27N 41°37' W 010°07'2911.9
2017-Jun-13 04:00N 42°06' W 010°06'  

Dump ship's entire track history